createdAt,value
2022-10-26T00:02:33.248Z,7.17
2022-10-26T00:05:37.565Z,6.53
2022-10-26T00:08:43.406Z,10.03
2022-10-26T00:11:46.957Z,12.27
2022-10-26T00:14:50.461Z,12.33
2022-10-26T00:17:54.085Z,10.07
2022-10-26T00:21:03.729Z,11.60
2022-10-26T00:24:08.910Z,10.10
2022-10-26T00:27:12.488Z,8.97
2022-10-26T00:30:16.494Z,10.27
2022-10-26T00:33:20.179Z,8.90
2022-10-26T00:36:24.433Z,8.60
2022-10-26T00:39:29.481Z,7.20
2022-10-26T00:42:32.991Z,6.50
2022-10-26T00:45:36.662Z,8.10
2022-10-26T00:48:44.467Z,7.33
2022-10-26T00:51:52.131Z,6.87
2022-10-26T00:54:57.717Z,5.60
2022-10-26T00:58:04.955Z,5.40
2022-10-26T01:01:08.728Z,6.53
2022-10-26T01:04:14.063Z,7.03
2022-10-26T01:07:18.203Z,5.10
2022-10-26T01:10:24.546Z,5.90
2022-10-26T01:13:31.469Z,6.23
2022-10-26T01:16:56.735Z,5.90
2022-10-26T01:20:33.580Z,6.30
2022-10-26T01:23:48.252Z,5.43
2022-10-26T01:27:06.759Z,6.13
2022-10-26T01:30:33.716Z,5.40
2022-10-26T01:33:44.476Z,5.47
2022-10-26T01:36:56.413Z,5.67
2022-10-26T01:40:06.865Z,5.67
2022-10-26T01:43:14.837Z,5.80
2022-10-26T01:46:23.115Z,6.20
2022-10-26T01:49:30.176Z,5.43
2022-10-26T01:52:34.198Z,5.10
2022-10-26T01:55:50.025Z,4.90
2022-10-26T01:59:15.302Z,4.77
2022-10-26T02:02:40.443Z,5.20
2022-10-26T02:05:59.462Z,5.30
2022-10-26T02:09:18.233Z,5.07
2022-10-26T02:12:31.264Z,5.10
2022-10-26T02:15:40.786Z,4.57
2022-10-26T02:18:53.399Z,5.00
2022-10-26T02:22:06.177Z,4.90
2022-10-26T02:25:18.161Z,4.97
2022-10-26T02:28:30.585Z,5.10
2022-10-26T02:31:37.782Z,4.33
2022-10-26T02:34:47.456Z,4.13
2022-10-26T02:37:54.387Z,4.23
2022-10-26T02:40:59.400Z,4.90
2022-10-26T02:44:09.859Z,4.90
2022-10-26T02:47:13.978Z,4.23
2022-10-26T02:50:20.942Z,4.23
2022-10-26T02:53:30.396Z,4.40
2022-10-26T02:56:41.725Z,5.13
2022-10-26T02:59:48.830Z,4.67
2022-10-26T03:02:57.342Z,5.37
2022-10-26T03:06:02.626Z,4.83
2022-10-26T03:09:06.341Z,4.80
2022-10-26T03:12:09.925Z,5.17
2022-10-26T03:15:13.843Z,4.80
2022-10-26T03:18:17.505Z,5.37
2022-10-26T03:21:22.717Z,5.07
2022-10-26T03:24:26.597Z,5.10
2022-10-26T03:27:30.172Z,5.10
2022-10-26T03:30:34.246Z,4.50
2022-10-26T03:36:48.101Z,4.67
2022-10-26T03:39:54.056Z,4.90
2022-10-26T03:42:57.722Z,4.87
2022-10-26T03:46:01.465Z,4.80
2022-10-26T03:49:08.106Z,4.60
2022-10-26T03:52:13.375Z,5.43
2022-10-26T03:55:17.726Z,5.53
2022-10-26T03:58:21.483Z,5.07
2022-10-26T04:01:25.340Z,4.77
2022-10-26T04:04:29.372Z,5.10
2022-10-26T04:07:34.605Z,4.90
2022-10-26T04:10:38.486Z,5.53
2022-10-26T04:13:42.197Z,5.77
2022-10-26T04:16:45.873Z,6.03
2022-10-26T04:19:49.422Z,5.30
2022-10-26T04:23:01.024Z,5.30
2022-10-26T04:26:06.485Z,5.80
2022-10-26T04:29:10.276Z,6.23
2022-10-26T04:32:14.056Z,6.30
2022-10-26T04:35:17.985Z,6.13
2022-10-26T04:38:23.132Z,5.00
2022-10-26T04:41:26.962Z,4.90
2022-10-26T04:44:30.765Z,4.40
2022-10-26T04:47:34.363Z,5.83
2022-10-26T04:50:38.583Z,5.00
2022-10-26T04:53:43.564Z,4.73
2022-10-26T04:59:55.985Z,4.70
2022-10-26T05:03:03.168Z,4.73
2022-10-26T05:06:07.167Z,5.07
2022-10-26T05:09:12.287Z,5.93
2022-10-26T05:12:15.963Z,4.93
2022-10-26T05:15:19.655Z,5.17
2022-10-26T05:18:23.419Z,5.73
2022-10-26T05:21:27.256Z,5.00
2022-10-26T05:24:32.283Z,5.07
2022-10-26T05:27:36.085Z,4.97
2022-10-26T05:30:39.726Z,5.93
2022-10-26T05:33:43.422Z,5.10
2022-10-26T05:36:47.059Z,7.90
2022-10-26T05:39:52.266Z,5.63
2022-10-26T05:43:01.392Z,7.03
2022-10-26T05:46:05.233Z,5.63
2022-10-26T05:49:08.937Z,5.83
2022-10-26T05:52:12.696Z,5.97
2022-10-26T05:55:19.657Z,5.67
2022-10-26T05:58:23.922Z,5.07
2022-10-26T06:01:35.896Z,5.60
2022-10-26T06:04:48.164Z,5.80
2022-10-26T06:07:52.672Z,5.50
2022-10-26T06:10:59.642Z,5.50
2022-10-26T06:14:04.006Z,5.83
2022-10-26T06:17:27.676Z,5.73
2022-10-26T06:20:46.503Z,5.77
2022-10-26T06:23:57.342Z,4.77
2022-10-26T06:27:10.331Z,5.03
2022-10-26T06:30:14.505Z,5.13
2022-10-26T06:33:28.751Z,5.47
2022-10-26T06:36:34.702Z,4.32
2022-10-26T06:39:43.823Z,5.25
2022-10-26T06:42:49.786Z,5.63
2022-10-26T06:46:01.530Z,4.88
2022-10-26T06:49:14.012Z,4.50
2022-10-26T06:52:22.776Z,4.50
2022-10-26T06:55:27.637Z,5.05
2022-10-26T06:58:36.663Z,4.72
2022-10-26T07:01:40.359Z,4.68
2022-10-26T07:04:44.673Z,3.95
2022-10-26T07:07:49.962Z,4.72
2022-10-26T07:10:53.864Z,4.68
2022-10-26T07:13:59.023Z,5.25
2022-10-26T07:17:02.722Z,4.80
2022-10-26T07:20:07.557Z,4.68
2022-10-26T07:23:12.395Z,4.25
2022-10-26T07:26:16.154Z,5.13
2022-10-26T07:29:21.273Z,12.70
2022-10-26T07:32:25.176Z,9.05
2022-10-26T07:35:30.702Z,5.78
2022-10-26T07:38:34.383Z,4.85
2022-10-26T07:41:38.236Z,6.97
2022-10-26T07:44:43.622Z,4.45
2022-10-26T07:47:47.566Z,4.43
2022-10-26T07:50:51.266Z,4.63
2022-10-26T07:53:55.174Z,4.40
2022-10-26T07:56:59.706Z,4.38
2022-10-26T08:00:05.979Z,4.38
2022-10-26T08:03:10.017Z,4.22
2022-10-26T08:06:14.938Z,3.67
2022-10-26T08:09:21.056Z,4.15
2022-10-26T08:12:24.895Z,3.90
2022-10-26T08:15:31.995Z,3.72
2022-10-26T08:18:35.636Z,4.25
2022-10-26T08:21:40.493Z,3.92
2022-10-26T08:24:46.978Z,4.65
2022-10-26T08:27:50.904Z,3.60
2022-10-26T08:30:56.382Z,3.80
2022-10-26T08:34:00.608Z,3.97
2022-10-26T08:37:04.508Z,4.28
2022-10-26T08:40:11.747Z,4.63
2022-10-26T08:43:21.206Z,3.42
2022-10-26T08:46:32.118Z,3.60
2022-10-26T08:49:44.893Z,3.47
2022-10-26T08:52:53.313Z,3.95
2022-10-26T08:56:01.266Z,3.70
2022-10-26T08:59:13.822Z,4.30
2022-10-26T09:02:19.422Z,3.78
2022-10-26T09:05:33.390Z,2.85
2022-10-26T09:08:52.482Z,3.30
2022-10-26T09:12:07.133Z,3.53
2022-10-26T09:15:20.234Z,4.47
2022-10-26T09:18:38.848Z,3.13
2022-10-26T09:21:49.917Z,2.90
2022-10-26T09:24:56.558Z,2.50
2022-10-26T09:28:03.383Z,2.92
2022-10-26T09:31:07.225Z,2.67
2022-10-26T09:34:22.246Z,2.83
2022-10-26T09:37:29.922Z,3.03
2022-10-26T09:40:38.203Z,2.97
2022-10-26T09:43:50.384Z,2.75
2022-10-26T09:47:00.093Z,2.67
2022-10-26T09:50:17.496Z,2.30
2022-10-26T09:53:21.283Z,2.25
2022-10-26T09:56:26.535Z,2.45
2022-10-26T09:59:34.816Z,2.35
2022-10-26T10:02:44.330Z,3.83
2022-10-26T10:05:52.121Z,3.22
2022-10-26T10:09:10.687Z,2.80
2022-10-26T10:12:23.888Z,2.85
2022-10-26T10:15:27.922Z,2.22
2022-10-26T10:18:31.805Z,2.35
2022-10-26T10:21:40.572Z,2.38
2022-10-26T10:24:54.202Z,2.70
2022-10-26T10:27:57.946Z,2.40
2022-10-26T10:31:03.425Z,2.75
2022-10-26T10:34:18.155Z,1.70
2022-10-26T10:37:28.952Z,1.90
2022-10-26T10:40:33.406Z,2.20
2022-10-26T10:43:37.501Z,2.30
2022-10-26T10:46:41.243Z,2.15
2022-10-26T10:49:54.702Z,1.83
2022-10-26T10:53:21.933Z,2.03
2022-10-26T10:56:34.506Z,2.17
2022-10-26T10:59:49.225Z,1.63
2022-10-26T11:03:34.755Z,1.85
2022-10-26T11:06:41.422Z,1.83
2022-10-26T11:09:49.989Z,2.55
2022-10-26T11:12:59.571Z,2.10
2022-10-26T11:16:05.883Z,1.98
2022-10-26T11:19:19.964Z,8.13
2022-10-26T11:22:27.902Z,26.77
2022-10-26T11:25:38.562Z,3.22
2022-10-26T11:28:50.210Z,1.80
2022-10-26T11:31:59.212Z,2.00
2022-10-26T11:35:13.525Z,1.98
2022-10-26T11:38:38.782Z,1.55
2022-10-26T11:41:54.994Z,1.70
2022-10-26T11:45:05.666Z,1.70
2022-10-26T11:48:17.342Z,2.03
2022-10-26T11:51:34.733Z,2.50
2022-10-26T11:54:45.225Z,2.40
2022-10-26T11:57:53.000Z,2.33
2022-10-26T12:01:02.236Z,5.68
2022-10-26T12:04:06.211Z,7.07
2022-10-26T12:07:15.035Z,3.60
2022-10-26T12:10:27.596Z,4.53
2022-10-26T12:13:39.383Z,4.45
2022-10-26T12:16:52.563Z,2.88
2022-10-26T12:20:02.657Z,2.50
2022-10-26T12:23:07.875Z,2.78
2022-10-26T12:26:50.945Z,3.30
2022-10-26T12:30:17.148Z,3.92
2022-10-26T12:33:30.875Z,2.67
2022-10-26T12:36:50.765Z,2.90
2022-10-26T12:39:54.475Z,2.80
2022-10-26T12:42:58.882Z,2.47
2022-10-26T12:46:42.392Z,3.00
2022-10-26T12:50:02.815Z,2.45
2022-10-26T12:53:12.136Z,2.55
2022-10-26T12:56:21.695Z,2.50
2022-10-26T12:59:35.206Z,6.07
2022-10-26T13:02:53.633Z,3.10
2022-10-26T13:06:24.515Z,2.50
2022-10-26T13:09:33.237Z,3.95
2022-10-26T13:12:47.329Z,3.75
2022-10-26T13:15:55.862Z,2.53
2022-10-26T13:19:00.962Z,2.58
2022-10-26T13:22:06.271Z,2.33
2022-10-26T13:25:23.412Z,2.42
2022-10-26T13:28:44.003Z,2.50
2022-10-26T13:31:58.156Z,2.85
2022-10-26T13:35:03.912Z,1.80
2022-10-26T13:38:12.444Z,2.75
2022-10-26T13:41:24.277Z,2.20
2022-10-26T13:44:32.592Z,2.35
2022-10-26T13:47:44.937Z,2.78
2022-10-26T13:50:53.081Z,2.35
2022-10-26T13:54:03.346Z,2.22
2022-10-26T13:57:20.804Z,2.25
2022-10-26T14:00:24.842Z,1.90
2022-10-26T14:03:29.168Z,2.10
2022-10-26T14:06:35.906Z,2.08
2022-10-26T14:09:41.203Z,2.30
2022-10-26T14:12:45.111Z,2.10
2022-10-26T14:15:49.245Z,1.88
2022-10-26T14:18:52.962Z,2.22
2022-10-26T14:21:57.563Z,1.90
2022-10-26T14:25:02.802Z,1.80
2022-10-26T14:28:22.906Z,2.50
2022-10-26T14:31:29.507Z,2.53
2022-10-26T14:34:33.406Z,2.70
2022-10-26T14:37:41.935Z,3.42
2022-10-26T14:40:47.767Z,3.20
2022-10-26T14:43:51.955Z,3.00
2022-10-26T14:46:55.896Z,3.50
2022-10-26T14:53:16.557Z,3.13
2022-10-26T14:56:26.174Z,2.90
2022-10-26T14:59:32.842Z,3.22
2022-10-26T15:02:36.836Z,2.67
2022-10-26T15:05:40.633Z,2.50
2022-10-26T15:08:56.832Z,2.47
2022-10-26T15:12:04.242Z,2.88
2022-10-26T15:18:29.147Z,3.25
2022-10-26T15:21:40.285Z,3.13
2022-10-26T15:24:43.996Z,2.75
2022-10-26T15:27:49.636Z,2.90
2022-10-26T15:31:06.353Z,2.67
2022-10-26T15:34:15.832Z,2.60
2022-10-26T15:37:19.657Z,2.30
2022-10-26T15:40:23.786Z,2.67
2022-10-26T15:43:29.142Z,2.20
2022-10-26T15:46:36.716Z,2.45
2022-10-26T15:49:40.467Z,2.90
2022-10-26T15:52:46.793Z,2.35
2022-10-26T15:55:54.203Z,2.70
2022-10-26T15:58:59.825Z,2.95
2022-10-26T16:02:03.735Z,2.88
2022-10-26T16:05:08.626Z,2.28
2022-10-26T16:08:18.014Z,2.58
2022-10-26T16:11:23.595Z,2.75
2022-10-26T16:14:33.380Z,1.90
2022-10-26T16:17:37.376Z,2.75
2022-10-26T16:20:41.509Z,2.10
2022-10-26T16:23:50.493Z,2.38
2022-10-26T16:26:54.303Z,2.35
2022-10-26T16:29:59.447Z,3.20
2022-10-26T16:33:03.195Z,2.50
2022-10-26T16:36:08.024Z,3.00
2022-10-26T16:39:13.743Z,4.60
2022-10-26T16:42:17.591Z,3.75
2022-10-26T16:45:22.722Z,4.00
2022-10-26T16:48:26.956Z,2.80
2022-10-26T16:51:30.646Z,4.05
2022-10-26T16:54:34.446Z,4.15
2022-10-26T16:57:38.765Z,4.85
2022-10-26T17:00:44.198Z,5.82
2022-10-26T17:03:48.504Z,6.57
2022-10-26T17:06:52.537Z,6.70
2022-10-26T17:09:56.497Z,8.40
2022-10-26T17:13:00.357Z,8.18
2022-10-26T17:16:07.003Z,7.15
2022-10-26T17:19:12.995Z,10.77
2022-10-26T17:22:16.756Z,12.82
2022-10-26T17:25:20.503Z,9.48
2022-10-26T17:28:24.626Z,8.40
2022-10-26T17:31:32.652Z,7.45
2022-10-26T17:34:36.456Z,7.63
2022-10-26T17:37:41.095Z,8.23
2022-10-26T17:40:44.842Z,6.65
2022-10-26T17:43:49.862Z,6.80
2022-10-26T17:46:55.152Z,8.57
2022-10-26T17:49:58.855Z,6.75
2022-10-26T17:53:02.623Z,8.75
2022-10-26T17:56:08.622Z,11.27
2022-10-26T17:59:13.642Z,12.02
2022-10-26T18:02:18.911Z,9.77
2022-10-26T18:05:22.636Z,11.25
2022-10-26T18:08:26.447Z,11.35
2022-10-26T18:14:38.776Z,11.73
2022-10-26T18:17:45.308Z,11.10
2022-10-26T18:20:49.151Z,10.50
2022-10-26T18:23:54.222Z,10.88
2022-10-26T18:26:58.342Z,11.45
2022-10-26T18:30:02.153Z,12.05
2022-10-26T18:33:07.363Z,12.85
2022-10-26T18:36:12.995Z,15.18
2022-10-26T18:39:16.767Z,15.52
2022-10-26T18:42:20.516Z,16.25
2022-10-26T18:45:24.188Z,15.15
2022-10-26T18:48:29.413Z,17.10
2022-10-26T18:51:35.522Z,21.65
2022-10-26T18:54:39.371Z,20.70
2022-10-26T18:57:43.066Z,18.75
2022-10-26T19:00:46.998Z,20.02
2022-10-26T19:03:56.325Z,17.02
2022-10-26T19:07:01.763Z,16.20
2022-10-26T19:10:06.096Z,14.95
2022-10-26T19:13:09.804Z,14.02
2022-10-26T19:16:26.953Z,13.43
2022-10-26T19:19:42.342Z,12.93
2022-10-26T19:22:46.101Z,13.18
2022-10-26T19:25:56.716Z,13.05
2022-10-26T19:29:01.976Z,13.15
2022-10-26T19:32:06.075Z,12.20
2022-10-26T19:35:11.704Z,12.70
2022-10-26T19:38:15.555Z,12.68
2022-10-26T19:41:19.646Z,11.88
2022-10-26T19:44:25.564Z,11.57
2022-10-26T19:47:29.536Z,12.05
2022-10-26T19:50:34.703Z,12.13
2022-10-26T19:53:38.303Z,11.73
2022-10-26T19:56:41.974Z,10.90
2022-10-26T19:59:45.744Z,11.85
2022-10-26T20:02:49.891Z,11.80
2022-10-26T20:05:57.136Z,11.75
2022-10-26T20:09:02.640Z,11.00
2022-10-26T20:12:07.511Z,11.03
2022-10-26T20:15:11.492Z,11.65
2022-10-26T20:18:15.506Z,11.30
2022-10-26T20:21:21.636Z,10.63
2022-10-26T20:24:28.617Z,11.13
2022-10-26T20:27:32.355Z,15.80
2022-10-26T20:30:37.962Z,12.13
2022-10-26T20:33:41.666Z,22.27
2022-10-26T20:36:46.802Z,16.27
2022-10-26T20:39:53.443Z,13.57
2022-10-26T20:42:57.789Z,13.48
2022-10-26T20:46:02.026Z,13.43
2022-10-26T20:49:06.103Z,11.87
2022-10-26T20:52:21.263Z,9.17
2022-10-26T20:55:32.583Z,8.60
2022-10-26T20:58:41.636Z,7.37
2022-10-26T21:01:45.456Z,6.50
2022-10-26T21:04:49.386Z,7.17
2022-10-26T21:11:02.974Z,5.80
2022-10-26T21:14:07.307Z,6.07
2022-10-26T21:17:12.102Z,13.70
2022-10-26T21:20:16.359Z,8.37
2022-10-26T21:23:22.135Z,5.93
2022-10-26T21:26:26.176Z,6.13
2022-10-26T21:29:30.448Z,5.40
2022-10-26T21:32:34.685Z,5.77
2022-10-26T21:35:38.863Z,5.90
2022-10-26T21:38:46.018Z,5.23
2022-10-26T21:41:50.260Z,5.17
2022-10-26T21:44:54.429Z,5.17
2022-10-26T21:47:58.799Z,5.60
2022-10-26T21:51:03.428Z,5.73
2022-10-26T21:54:09.321Z,5.67
2022-10-26T21:57:13.544Z,5.63
2022-10-26T22:03:50.267Z,5.20
2022-10-26T22:06:58.047Z,5.83
2022-10-26T22:10:11.178Z,6.43
2022-10-26T22:13:16.279Z,10.80
2022-10-26T22:16:22.794Z,6.57
2022-10-26T22:19:27.101Z,6.40
2022-10-26T22:22:31.533Z,6.57
2022-10-26T22:25:37.192Z,5.90
2022-10-26T22:28:43.585Z,6.10
2022-10-26T22:31:47.786Z,6.40
2022-10-26T22:35:00.304Z,6.03
2022-10-26T22:38:14.902Z,6.23
2022-10-26T22:41:21.611Z,5.93
2022-10-26T22:44:26.001Z,6.13
2022-10-26T22:47:30.492Z,5.67
2022-10-26T22:50:34.680Z,5.90
2022-10-26T22:53:39.072Z,6.77
2022-10-26T22:56:44.801Z,6.13
2022-10-26T22:59:48.989Z,6.87
2022-10-26T23:02:53.131Z,6.20
2022-10-26T23:05:57.723Z,6.43
2022-10-26T23:09:01.962Z,6.23
2022-10-26T23:12:07.822Z,6.37
2022-10-26T23:15:12.610Z,6.33
2022-10-26T23:18:16.702Z,6.53
2022-10-26T23:21:21.380Z,6.63
2022-10-26T23:24:25.563Z,5.97
2022-10-26T23:27:30.742Z,6.63
2022-10-26T23:30:34.567Z,7.47
2022-10-26T23:33:38.203Z,8.87
2022-10-26T23:36:41.897Z,7.33
2022-10-26T23:39:45.603Z,7.77
2022-10-26T23:42:50.901Z,7.30
2022-10-26T23:45:55.436Z,7.30
2022-10-26T23:48:59.059Z,6.23
2022-10-26T23:52:02.897Z,7.03
2022-10-26T23:55:07.278Z,6.87
2022-10-26T23:58:15.163Z,8.07
